sensor_id;sensor_type;location;lat;lon;timestamp;P1;durP1;ratioP1;P2;durP2;ratioP2
13981;SDS011;7065;50.880;5.502;2023-07-16T00:01:32;4.47;;;2.33;;
13981;SDS011;7065;50.880;5.502;2023-07-16T00:03:58;2.75;;;1.75;;
13981;SDS011;7065;50.880;5.502;2023-07-16T00:06:24;4.03;;;2.28;;
13981;SDS011;7065;50.880;5.502;2023-07-16T00:08:49;4.25;;;2.20;;
13981;SDS011;7065;50.880;5.502;2023-07-16T00:11:15;5.30;;;2.22;;
13981;SDS011;7065;50.880;5.502;2023-07-16T00:13:41;3.25;;;2.75;;
13981;SDS011;7065;50.880;5.502;2023-07-16T00:16:11;3.95;;;2.47;;
13981;SDS011;7065;50.880;5.502;2023-07-16T00:18:37;6.32;;;2.92;;
13981;SDS011;7065;50.880;5.502;2023-07-16T00:21:02;5.40;;;2.65;;
13981;SDS011;7065;50.880;5.502;2023-07-16T00:23:28;3.55;;;2.33;;
13981;SDS011;7065;50.880;5.502;2023-07-16T00:25:54;4.28;;;2.65;;
13981;SDS011;7065;50.880;5.502;2023-07-16T00:28:19;2.90;;;2.53;;
13981;SDS011;7065;50.880;5.502;2023-07-16T00:30:45;4.45;;;2.67;;
13981;SDS011;7065;50.880;5.502;2023-07-16T00:33:10;6.80;;;2.85;;
13981;SDS011;7065;50.880;5.502;2023-07-16T00:35:37;4.95;;;2.88;;
13981;SDS011;7065;50.880;5.502;2023-07-16T00:38:02;5.82;;;2.97;;
13981;SDS011;7065;50.880;5.502;2023-07-16T00:40:28;4.63;;;2.80;;
13981;SDS011;7065;50.880;5.502;2023-07-16T00:42:54;6.05;;;2.70;;
13981;SDS011;7065;50.880;5.502;2023-07-16T00:45:19;3.45;;;2.38;;
13981;SDS011;7065;50.880;5.502;2023-07-16T00:47:47;4.05;;;2.95;;
13981;SDS011;7065;50.880;5.502;2023-07-16T00:50:13;3.72;;;2.63;;
13981;SDS011;7065;50.880;5.502;2023-07-16T00:52:39;4.60;;;2.97;;
13981;SDS011;7065;50.880;5.502;2023-07-16T00:55:05;4.25;;;2.60;;
13981;SDS011;7065;50.880;5.502;2023-07-16T00:57:32;6.68;;;2.55;;
13981;SDS011;7065;50.880;5.502;2023-07-16T00:59:58;4.00;;;3.10;;
13981;SDS011;7065;50.880;5.502;2023-07-16T01:02:24;4.65;;;3.08;;
13981;SDS011;7065;50.880;5.502;2023-07-16T01:04:51;4.38;;;3.28;;
13981;SDS011;7065;50.880;5.502;2023-07-16T01:07:17;6.68;;;3.63;;
13981;SDS011;7065;50.880;5.502;2023-07-16T01:09:44;6.25;;;3.28;;
13981;SDS011;7065;50.880;5.502;2023-07-16T01:12:10;12.40;;;4.55;;
13981;SDS011;7065;50.880;5.502;2023-07-16T01:14:37;6.07;;;3.47;;
13981;SDS011;7065;50.880;5.502;2023-07-16T01:17:04;6.68;;;3.97;;
13981;SDS011;7065;50.880;5.502;2023-07-16T01:19:32;5.97;;;4.20;;
13981;SDS011;7065;50.880;5.502;2023-07-16T01:30:31;6.97;;;3.97;;
13981;SDS011;7065;50.880;5.502;2023-07-16T01:32:57;8.57;;;3.97;;
13981;SDS011;7065;50.880;5.502;2023-07-16T01:35:23;5.93;;;4.05;;
13981;SDS011;7065;50.880;5.502;2023-07-16T01:37:49;8.18;;;4.18;;
13981;SDS011;7065;50.880;5.502;2023-07-16T01:40:14;5.00;;;3.97;;
13981;SDS011;7065;50.880;5.502;2023-07-16T01:42:40;4.22;;;3.28;;
13981;SDS011;7065;50.880;5.502;2023-07-16T01:45:06;7.75;;;3.90;;
13981;SDS011;7065;50.880;5.502;2023-07-16T01:47:55;10.73;;;4.13;;
13981;SDS011;7065;50.880;5.502;2023-07-16T01:50:40;8.15;;;3.20;;
13981;SDS011;7065;50.880;5.502;2023-07-16T01:53:06;8.95;;;3.50;;
13981;SDS011;7065;50.880;5.502;2023-07-16T01:55:32;5.63;;;3.30;;
13981;SDS011;7065;50.880;5.502;2023-07-16T01:57:58;5.10;;;2.55;;
13981;SDS011;7065;50.880;5.502;2023-07-16T02:00:23;7.30;;;3.40;;
13981;SDS011;7065;50.880;5.502;2023-07-16T02:02:49;8.40;;;3.45;;
13981;SDS011;7065;50.880;5.502;2023-07-16T02:05:16;8.27;;;3.28;;
13981;SDS011;7065;50.880;5.502;2023-07-16T02:07:42;6.38;;;2.92;;
13981;SDS011;7065;50.880;5.502;2023-07-16T02:10:08;9.18;;;3.15;;
13981;SDS011;7065;50.880;5.502;2023-07-16T02:12:33;5.60;;;2.80;;
13981;SDS011;7065;50.880;5.502;2023-07-16T02:14:59;7.85;;;3.15;;
13981;SDS011;7065;50.880;5.502;2023-07-16T02:17:25;6.15;;;3.13;;
13981;SDS011;7065;50.880;5.502;2023-07-16T02:19:50;7.75;;;2.85;;
13981;SDS011;7065;50.880;5.502;2023-07-16T02:22:16;7.30;;;2.92;;
13981;SDS011;7065;50.880;5.502;2023-07-16T02:24:42;7.65;;;3.58;;
13981;SDS011;7065;50.880;5.502;2023-07-16T02:27:07;6.93;;;3.20;;
13981;SDS011;7065;50.880;5.502;2023-07-16T02:29:33;7.53;;;3.40;;
13981;SDS011;7065;50.880;5.502;2023-07-16T02:31:59;7.20;;;3.28;;
13981;SDS011;7065;50.880;5.502;2023-07-16T02:34:25;4.35;;;2.70;;
13981;SDS011;7065;50.880;5.502;2023-07-16T02:36:51;6.63;;;2.97;;
13981;SDS011;7065;50.880;5.502;2023-07-16T02:39:16;6.65;;;3.08;;
13981;SDS011;7065;50.880;5.502;2023-07-16T02:41:42;6.10;;;3.38;;
13981;SDS011;7065;50.880;5.502;2023-07-16T02:44:08;8.40;;;3.42;;
13981;SDS011;7065;50.880;5.502;2023-07-16T02:46:34;8.35;;;3.42;;
13981;SDS011;7065;50.880;5.502;2023-07-16T02:49:00;7.30;;;4.10;;
13981;SDS011;7065;50.880;5.502;2023-07-16T02:51:27;7.22;;;3.17;;
13981;SDS011;7065;50.880;5.502;2023-07-16T02:53:53;7.65;;;3.15;;
13981;SDS011;7065;50.880;5.502;2023-07-16T02:56:19;4.50;;;2.97;;
13981;SDS011;7065;50.880;5.502;2023-07-16T02:58:45;9.23;;;3.03;;
13981;SDS011;7065;50.880;5.502;2023-07-16T03:01:10;6.55;;;3.33;;
13981;SDS011;7065;50.880;5.502;2023-07-16T03:03:37;9.48;;;3.58;;
13981;SDS011;7065;50.880;5.502;2023-07-16T03:06:03;5.50;;;3.30;;
13981;SDS011;7065;50.880;5.502;2023-07-16T03:08:29;6.82;;;3.22;;
13981;SDS011;7065;50.880;5.502;2023-07-16T03:10:56;11.90;;;3.50;;
13981;SDS011;7065;50.880;5.502;2023-07-16T03:13:22;14.20;;;3.75;;
13981;SDS011;7065;50.880;5.502;2023-07-16T03:15:49;9.27;;;3.60;;
13981;SDS011;7065;50.880;5.502;2023-07-16T03:18:15;7.38;;;3.30;;
13981;SDS011;7065;50.880;5.502;2023-07-16T03:20:43;9.18;;;3.75;;
13981;SDS011;7065;50.880;5.502;2023-07-16T03:23:08;9.65;;;3.67;;
13981;SDS011;7065;50.880;5.502;2023-07-16T03:25:34;9.63;;;3.85;;
13981;SDS011;7065;50.880;5.502;2023-07-16T03:28:00;7.05;;;3.67;;
13981;SDS011;7065;50.880;5.502;2023-07-16T03:30:26;6.90;;;3.53;;
13981;SDS011;7065;50.880;5.502;2023-07-16T03:32:52;8.73;;;3.45;;
13981;SDS011;7065;50.880;5.502;2023-07-16T03:35:17;12.35;;;4.13;;
13981;SDS011;7065;50.880;5.502;2023-07-16T03:37:43;13.88;;;4.15;;
13981;SDS011;7065;50.880;5.502;2023-07-16T03:40:16;8.55;;;3.58;;
13981;SDS011;7065;50.880;5.502;2023-07-16T03:42:43;8.70;;;3.40;;
13981;SDS011;7065;50.880;5.502;2023-07-16T03:45:12;10.32;;;4.20;;
13981;SDS011;7065;50.880;5.502;2023-07-16T03:47:38;10.00;;;3.85;;
13981;SDS011;7065;50.880;5.502;2023-07-16T03:50:04;7.82;;;4.03;;
13981;SDS011;7065;50.880;5.502;2023-07-16T03:52:30;10.15;;;4.18;;
13981;SDS011;7065;50.880;5.502;2023-07-16T03:54:56;9.73;;;3.50;;
13981;SDS011;7065;50.880;5.502;2023-07-16T03:57:22;7.43;;;3.35;;
13981;SDS011;7065;50.880;5.502;2023-07-16T03:59:48;7.32;;;3.53;;
13981;SDS011;7065;50.880;5.502;2023-07-16T04:02:13;8.48;;;3.95;;
13981;SDS011;7065;50.880;5.502;2023-07-16T04:04:39;9.85;;;4.30;;
13981;SDS011;7065;50.880;5.502;2023-07-16T04:07:05;9.02;;;3.92;;
13981;SDS011;7065;50.880;5.502;2023-07-16T04:09:31;9.52;;;3.97;;
13981;SDS011;7065;50.880;5.502;2023-07-16T04:11:56;12.20;;;3.97;;
13981;SDS011;7065;50.880;5.502;2023-07-16T04:14:22;7.32;;;4.18;;
13981;SDS011;7065;50.880;5.502;2023-07-16T04:16:48;12.90;;;4.07;;
13981;SDS011;7065;50.880;5.502;2023-07-16T04:19:13;10.85;;;4.68;;
13981;SDS011;7065;50.880;5.502;2023-07-16T04:21:39;10.70;;;4.85;;
13981;SDS011;7065;50.880;5.502;2023-07-16T04:24:05;10.32;;;3.75;;
13981;SDS011;7065;50.880;5.502;2023-07-16T04:26:31;9.02;;;4.05;;
13981;SDS011;7065;50.880;5.502;2023-07-16T04:28:57;5.45;;;3.72;;
13981;SDS011;7065;50.880;5.502;2023-07-16T04:31:23;8.85;;;4.57;;
13981;SDS011;7065;50.880;5.502;2023-07-16T04:33:50;10.52;;;4.07;;
13981;SDS011;7065;50.880;5.502;2023-07-16T04:36:15;10.18;;;4.72;;
13981;SDS011;7065;50.880;5.502;2023-07-16T04:38:41;8.32;;;4.70;;
13981;SDS011;7065;50.880;5.502;2023-07-16T04:41:07;8.93;;;4.55;;
13981;SDS011;7065;50.880;5.502;2023-07-16T04:43:32;10.07;;;5.03;;
13981;SDS011;7065;50.880;5.502;2023-07-16T04:45:58;11.63;;;4.72;;
13981;SDS011;7065;50.880;5.502;2023-07-16T04:48:25;11.63;;;4.85;;
13981;SDS011;7065;50.880;5.502;2023-07-16T04:50:51;8.85;;;4.80;;
13981;SDS011;7065;50.880;5.502;2023-07-16T04:53:17;8.27;;;4.20;;
13981;SDS011;7065;50.880;5.502;2023-07-16T04:55:43;8.55;;;4.97;;
13981;SDS011;7065;50.880;5.502;2023-07-16T04:58:11;10.88;;;5.38;;
13981;SDS011;7065;50.880;5.502;2023-07-16T05:00:37;10.38;;;5.60;;
13981;SDS011;7065;50.880;5.502;2023-07-16T05:03:03;12.57;;;5.15;;
13981;SDS011;7065;50.880;5.502;2023-07-16T05:05:29;13.35;;;5.78;;
13981;SDS011;7065;50.880;5.502;2023-07-16T05:07:54;10.13;;;5.40;;
13981;SDS011;7065;50.880;5.502;2023-07-16T05:10:20;7.72;;;5.03;;
13981;SDS011;7065;50.880;5.502;2023-07-16T05:12:46;10.55;;;5.80;;
13981;SDS011;7065;50.880;5.502;2023-07-16T05:15:12;12.45;;;5.35;;
13981;SDS011;7065;50.880;5.502;2023-07-16T05:17:38;9.50;;;5.22;;
13981;SDS011;7065;50.880;5.502;2023-07-16T05:20:04;8.88;;;5.45;;
13981;SDS011;7065;50.880;5.502;2023-07-16T05:22:30;15.18;;;5.63;;
13981;SDS011;7065;50.880;5.502;2023-07-16T05:24:57;11.30;;;6.43;;
13981;SDS011;7065;50.880;5.502;2023-07-16T05:27:23;7.35;;;5.47;;
13981;SDS011;7065;50.880;5.502;2023-07-16T05:29:49;11.57;;;5.47;;
13981;SDS011;7065;50.880;5.502;2023-07-16T05:32:15;10.80;;;5.80;;
13981;SDS011;7065;50.880;5.502;2023-07-16T05:34:41;12.10;;;5.47;;
13981;SDS011;7065;50.880;5.502;2023-07-16T05:37:06;11.30;;;5.43;;
13981;SDS011;7065;50.880;5.502;2023-07-16T05:39:32;14.77;;;6.15;;
13981;SDS011;7065;50.880;5.502;2023-07-16T05:41:58;9.32;;;6.05;;
13981;SDS011;7065;50.880;5.502;2023-07-16T05:44:23;15.48;;;6.90;;
13981;SDS011;7065;50.880;5.502;2023-07-16T05:46:49;10.00;;;5.93;;
13981;SDS011;7065;50.880;5.502;2023-07-16T05:49:15;11.52;;;5.68;;
13981;SDS011;7065;50.880;5.502;2023-07-16T05:51:40;12.30;;;6.22;;
13981;SDS011;7065;50.880;5.502;2023-07-16T05:54:07;11.40;;;6.55;;
13981;SDS011;7065;50.880;5.502;2023-07-16T05:56:32;14.18;;;7.05;;
13981;SDS011;7065;50.880;5.502;2023-07-16T05:58:58;11.27;;;7.00;;
13981;SDS011;7065;50.880;5.502;2023-07-16T06:01:24;10.13;;;6.40;;
13981;SDS011;7065;50.880;5.502;2023-07-16T06:03:49;12.48;;;6.32;;
13981;SDS011;7065;50.880;5.502;2023-07-16T06:06:16;10.93;;;6.32;;
13981;SDS011;7065;50.880;5.502;2023-07-16T06:08:41;10.27;;;7.03;;
13981;SDS011;7065;50.880;5.502;2023-07-16T06:11:07;11.75;;;7.43;;
13981;SDS011;7065;50.880;5.502;2023-07-16T06:13:33;12.13;;;7.68;;
13981;SDS011;7065;50.880;5.502;2023-07-16T06:15:58;12.38;;;7.10;;
13981;SDS011;7065;50.880;5.502;2023-07-16T06:18:24;11.15;;;6.80;;
13981;SDS011;7065;50.880;5.502;2023-07-16T06:20:50;11.93;;;6.80;;
13981;SDS011;7065;50.880;5.502;2023-07-16T06:23:17;14.93;;;7.05;;
13981;SDS011;7065;50.880;5.502;2023-07-16T06:25:42;15.68;;;7.10;;
13981;SDS011;7065;50.880;5.502;2023-07-16T06:28:13;12.25;;;6.85;;
13981;SDS011;7065;50.880;5.502;2023-07-16T06:30:39;13.60;;;6.90;;
13981;SDS011;7065;50.880;5.502;2023-07-16T06:33:05;9.63;;;6.78;;
13981;SDS011;7065;50.880;5.502;2023-07-16T06:35:31;14.00;;;7.03;;
13981;SDS011;7065;50.880;5.502;2023-07-16T06:37:58;10.07;;;6.63;;
13981;SDS011;7065;50.880;5.502;2023-07-16T06:40:24;13.38;;;7.18;;
13981;SDS011;7065;50.880;5.502;2023-07-16T06:42:49;12.70;;;6.93;;
13981;SDS011;7065;50.880;5.502;2023-07-16T06:45:17;12.43;;;7.07;;
13981;SDS011;7065;50.880;5.502;2023-07-16T06:47:43;9.85;;;6.75;;
13981;SDS011;7065;50.880;5.502;2023-07-16T06:50:09;10.02;;;7.95;;
13981;SDS011;7065;50.880;5.502;2023-07-16T06:52:35;13.63;;;7.60;;
13981;SDS011;7065;50.880;5.502;2023-07-16T06:55:00;9.40;;;6.57;;
13981;SDS011;7065;50.880;5.502;2023-07-16T06:57:26;11.80;;;7.20;;
13981;SDS011;7065;50.880;5.502;2023-07-16T06:59:52;14.15;;;7.07;;
13981;SDS011;7065;50.880;5.502;2023-07-16T07:02:18;12.88;;;6.90;;
13981;SDS011;7065;50.880;5.502;2023-07-16T07:04:44;12.38;;;7.20;;
13981;SDS011;7065;50.880;5.502;2023-07-16T07:07:10;12.60;;;7.22;;
13981;SDS011;7065;50.880;5.502;2023-07-16T07:09:35;13.70;;;7.32;;
13981;SDS011;7065;50.880;5.502;2023-07-16T07:12:01;11.00;;;6.82;;
13981;SDS011;7065;50.880;5.502;2023-07-16T07:14:27;12.80;;;7.30;;
13981;SDS011;7065;50.880;5.502;2023-07-16T07:16:53;12.60;;;7.40;;
13981;SDS011;7065;50.880;5.502;2023-07-16T07:19:19;11.23;;;6.78;;
13981;SDS011;7065;50.880;5.502;2023-07-16T07:21:44;13.90;;;7.05;;
13981;SDS011;7065;50.880;5.502;2023-07-16T07:24:10;11.93;;;7.35;;
13981;SDS011;7065;50.880;5.502;2023-07-16T07:26:37;10.27;;;6.35;;
13981;SDS011;7065;50.880;5.502;2023-07-16T07:29:03;11.02;;;7.03;;
13981;SDS011;7065;50.880;5.502;2023-07-16T07:31:29;13.80;;;7.35;;
13981;SDS011;7065;50.880;5.502;2023-07-16T07:33:54;8.63;;;6.10;;
13981;SDS011;7065;50.880;5.502;2023-07-16T07:36:22;12.98;;;6.63;;
13981;SDS011;7065;50.880;5.502;2023-07-16T07:38:48;10.73;;;6.47;;
13981;SDS011;7065;50.880;5.502;2023-07-16T07:41:14;13.77;;;6.95;;
13981;SDS011;7065;50.880;5.502;2023-07-16T07:43:39;9.85;;;6.45;;
13981;SDS011;7065;50.880;5.502;2023-07-16T07:46:05;12.45;;;6.88;;
13981;SDS011;7065;50.880;5.502;2023-07-16T07:48:31;13.80;;;6.78;;
13981;SDS011;7065;50.880;5.502;2023-07-16T07:50:57;11.48;;;6.88;;
13981;SDS011;7065;50.880;5.502;2023-07-16T07:53:22;11.15;;;6.18;;
13981;SDS011;7065;50.880;5.502;2023-07-16T07:55:49;11.05;;;6.68;;
13981;SDS011;7065;50.880;5.502;2023-07-16T07:58:14;12.43;;;6.47;;
13981;SDS011;7065;50.880;5.502;2023-07-16T08:00:40;13.85;;;6.88;;
13981;SDS011;7065;50.880;5.502;2023-07-16T08:03:06;12.32;;;6.97;;
13981;SDS011;7065;50.880;5.502;2023-07-16T08:05:32;11.68;;;7.38;;
13981;SDS011;7065;50.880;5.502;2023-07-16T08:07:59;11.13;;;5.78;;
13981;SDS011;7065;50.880;5.502;2023-07-16T08:10:24;12.27;;;5.72;;
13981;SDS011;7065;50.880;5.502;2023-07-16T08:12:50;12.10;;;7.05;;
13981;SDS011;7065;50.880;5.502;2023-07-16T08:15:17;12.10;;;6.80;;
13981;SDS011;7065;50.880;5.502;2023-07-16T08:17:43;10.88;;;6.57;;
13981;SDS011;7065;50.880;5.502;2023-07-16T08:20:10;10.65;;;6.82;;
13981;SDS011;7065;50.880;5.502;2023-07-16T08:22:37;9.60;;;6.20;;
13981;SDS011;7065;50.880;5.502;2023-07-16T08:25:03;9.27;;;6.13;;
13981;SDS011;7065;50.880;5.502;2023-07-16T08:27:30;11.30;;;6.40;;
13981;SDS011;7065;50.880;5.502;2023-07-16T08:29:56;7.93;;;5.18;;
13981;SDS011;7065;50.880;5.502;2023-07-16T08:32:22;8.15;;;6.30;;
13981;SDS011;7065;50.880;5.502;2023-07-16T08:34:48;11.82;;;6.25;;
13981;SDS011;7065;50.880;5.502;2023-07-16T08:37:14;8.98;;;6.18;;
13981;SDS011;7065;50.880;5.502;2023-07-16T08:39:40;10.77;;;6.32;;
13981;SDS011;7065;50.880;5.502;2023-07-16T08:42:06;8.18;;;5.43;;
13981;SDS011;7065;50.880;5.502;2023-07-16T08:44:34;10.15;;;5.80;;
13981;SDS011;7065;50.880;5.502;2023-07-16T08:47:02;10.43;;;6.63;;
13981;SDS011;7065;50.880;5.502;2023-07-16T08:49:28;7.80;;;5.97;;
13981;SDS011;7065;50.880;5.502;2023-07-16T08:51:55;8.50;;;5.20;;
13981;SDS011;7065;50.880;5.502;2023-07-16T08:54:22;10.82;;;5.57;;
13981;SDS011;7065;50.880;5.502;2023-07-16T08:56:48;9.18;;;5.55;;
13981;SDS011;7065;50.880;5.502;2023-07-16T08:59:15;9.55;;;6.05;;
13981;SDS011;7065;50.880;5.502;2023-07-16T09:01:41;8.77;;;5.78;;
13981;SDS011;7065;50.880;5.502;2023-07-16T09:04:06;8.77;;;5.28;;
13981;SDS011;7065;50.880;5.502;2023-07-16T09:06:33;10.50;;;5.63;;
13981;SDS011;7065;50.880;5.502;2023-07-16T09:08:58;7.28;;;5.22;;
13981;SDS011;7065;50.880;5.502;2023-07-16T09:11:24;6.90;;;4.85;;
13981;SDS011;7065;50.880;5.502;2023-07-16T09:13:50;6.75;;;5.70;;
13981;SDS011;7065;50.880;5.502;2023-07-16T09:16:19;6.78;;;4.85;;
13981;SDS011;7065;50.880;5.502;2023-07-16T09:18:46;7.32;;;4.80;;
13981;SDS011;7065;50.880;5.502;2023-07-16T09:21:12;7.30;;;4.68;;
13981;SDS011;7065;50.880;5.502;2023-07-16T09:23:38;7.18;;;4.50;;
13981;SDS011;7065;50.880;5.502;2023-07-16T09:26:06;8.52;;;4.82;;
13981;SDS011;7065;50.880;5.502;2023-07-16T09:28:32;5.22;;;3.90;;
13981;SDS011;7065;50.880;5.502;2023-07-16T09:31:08;5.25;;;4.13;;
13981;SDS011;7065;50.880;5.502;2023-07-16T09:33:34;6.28;;;4.05;;
13981;SDS011;7065;50.880;5.502;2023-07-16T09:35:59;6.03;;;3.97;;
13981;SDS011;7065;50.880;5.502;2023-07-16T09:38:26;7.40;;;3.78;;
13981;SDS011;7065;50.880;5.502;2023-07-16T09:40:53;9.07;;;4.90;;
13981;SDS011;7065;50.880;5.502;2023-07-16T09:43:20;4.45;;;3.90;;
13981;SDS011;7065;50.880;5.502;2023-07-16T09:45:47;5.82;;;4.15;;
13981;SDS011;7065;50.880;5.502;2023-07-16T09:48:13;6.43;;;3.97;;
13981;SDS011;7065;50.880;5.502;2023-07-16T09:50:40;4.28;;;3.40;;
13981;SDS011;7065;50.880;5.502;2023-07-16T09:53:14;4.35;;;3.13;;
13981;SDS011;7065;50.880;5.502;2023-07-16T09:55:41;6.63;;;3.58;;
13981;SDS011;7065;50.880;5.502;2023-07-16T09:58:08;6.72;;;3.40;;
13981;SDS011;7065;50.880;5.502;2023-07-16T10:00:36;6.07;;;3.78;;
13981;SDS011;7065;50.880;5.502;2023-07-16T10:03:05;5.65;;;3.47;;
13981;SDS011;7065;50.880;5.502;2023-07-16T10:05:35;7.05;;;3.70;;
13981;SDS011;7065;50.880;5.502;2023-07-16T10:08:02;5.90;;;3.00;;
13981;SDS011;7065;50.880;5.502;2023-07-16T10:10:41;4.82;;;3.42;;
13981;SDS011;7065;50.880;5.502;2023-07-16T10:13:10;5.50;;;3.53;;
13981;SDS011;7065;50.880;5.502;2023-07-16T10:15:38;4.82;;;3.15;;
13981;SDS011;7065;50.880;5.502;2023-07-16T10:18:04;5.18;;;3.60;;
13981;SDS011;7065;50.880;5.502;2023-07-16T10:20:33;5.93;;;3.50;;
13981;SDS011;7065;50.880;5.502;2023-07-16T10:23:11;7.63;;;3.70;;
13981;SDS011;7065;50.880;5.502;2023-07-16T10:25:40;6.95;;;3.53;;
13981;SDS011;7065;50.880;5.502;2023-07-16T10:28:22;5.88;;;3.83;;
13981;SDS011;7065;50.880;5.502;2023-07-16T10:30:49;4.03;;;3.00;;
13981;SDS011;7065;50.880;5.502;2023-07-16T10:33:15;5.82;;;3.53;;
13981;SDS011;7065;50.880;5.502;2023-07-16T10:35:41;4.82;;;3.45;;
13981;SDS011;7065;50.880;5.502;2023-07-16T10:38:07;6.95;;;3.45;;
13981;SDS011;7065;50.880;5.502;2023-07-16T10:40:33;4.65;;;3.47;;
13981;SDS011;7065;50.880;5.502;2023-07-16T10:43:04;5.03;;;3.22;;
13981;SDS011;7065;50.880;5.502;2023-07-16T10:45:31;6.45;;;3.33;;
13981;SDS011;7065;50.880;5.502;2023-07-16T10:47:58;7.72;;;3.30;;
13981;SDS011;7065;50.880;5.502;2023-07-16T10:50:24;5.07;;;3.25;;
13981;SDS011;7065;50.880;5.502;2023-07-16T10:52:54;6.95;;;3.50;;
13981;SDS011;7065;50.880;5.502;2023-07-16T10:55:21;5.25;;;3.22;;
13981;SDS011;7065;50.880;5.502;2023-07-16T10:57:48;7.07;;;3.35;;
13981;SDS011;7065;50.880;5.502;2023-07-16T11:00:14;4.72;;;3.10;;
13981;SDS011;7065;50.880;5.502;2023-07-16T11:02:41;6.28;;;3.38;;
13981;SDS011;7065;50.880;5.502;2023-07-16T11:05:11;6.57;;;3.45;;
13981;SDS011;7065;50.880;5.502;2023-07-16T11:07:45;6.97;;;3.83;;
13981;SDS011;7065;50.880;5.502;2023-07-16T11:10:11;5.45;;;3.70;;
13981;SDS011;7065;50.880;5.502;2023-07-16T11:12:37;7.00;;;3.50;;
13981;SDS011;7065;50.880;5.502;2023-07-16T11:15:03;5.22;;;3.80;;
13981;SDS011;7065;50.880;5.502;2023-07-16T11:17:29;5.03;;;3.40;;
13981;SDS011;7065;50.880;5.502;2023-07-16T11:19:55;7.30;;;3.65;;
13981;SDS011;7065;50.880;5.502;2023-07-16T11:22:26;6.30;;;3.55;;
13981;SDS011;7065;50.880;5.502;2023-07-16T11:24:53;4.40;;;3.10;;
13981;SDS011;7065;50.880;5.502;2023-07-16T11:27:24;5.72;;;3.22;;
13981;SDS011;7065;50.880;5.502;2023-07-16T11:29:58;5.35;;;3.13;;
13981;SDS011;7065;50.880;5.502;2023-07-16T11:32:32;4.43;;;3.38;;
13981;SDS011;7065;50.880;5.502;2023-07-16T11:35:04;5.93;;;3.33;;
13981;SDS011;7065;50.880;5.502;2023-07-16T11:37:32;7.05;;;3.03;;
13981;SDS011;7065;50.880;5.502;2023-07-16T11:40:00;4.45;;;3.05;;
13981;SDS011;7065;50.880;5.502;2023-07-16T11:42:30;5.38;;;3.88;;
13981;SDS011;7065;50.880;5.502;2023-07-16T11:44:57;5.05;;;3.25;;
13981;SDS011;7065;50.880;5.502;2023-07-16T11:47:23;3.90;;;3.05;;
13981;SDS011;7065;50.880;5.502;2023-07-16T11:49:49;5.00;;;3.47;;
13981;SDS011;7065;50.880;5.502;2023-07-16T11:52:18;5.55;;;3.30;;
13981;SDS011;7065;50.880;5.502;2023-07-16T11:54:46;6.05;;;3.33;;
13981;SDS011;7065;50.880;5.502;2023-07-16T11:57:12;6.70;;;3.47;;
13981;SDS011;7065;50.880;5.502;2023-07-16T11:59:37;4.05;;;3.38;;
13981;SDS011;7065;50.880;5.502;2023-07-16T12:02:03;6.30;;;3.10;;
13981;SDS011;7065;50.880;5.502;2023-07-16T12:04:29;4.85;;;3.17;;
13981;SDS011;7065;50.880;5.502;2023-07-16T12:06:55;5.25;;;3.17;;
13981;SDS011;7065;50.880;5.502;2023-07-16T12:09:20;5.68;;;3.13;;
13981;SDS011;7065;50.880;5.502;2023-07-16T12:11:46;3.30;;;2.72;;
13981;SDS011;7065;50.880;5.502;2023-07-16T12:14:12;4.72;;;2.85;;
13981;SDS011;7065;50.880;5.502;2023-07-16T12:16:38;4.82;;;3.00;;
13981;SDS011;7065;50.880;5.502;2023-07-16T12:19:05;6.30;;;3.08;;
13981;SDS011;7065;50.880;5.502;2023-07-16T12:21:32;6.10;;;3.22;;
13981;SDS011;7065;50.880;5.502;2023-07-16T12:23:58;5.38;;;3.45;;
13981;SDS011;7065;50.880;5.502;2023-07-16T12:26:23;4.65;;;3.20;;
13981;SDS011;7065;50.880;5.502;2023-07-16T12:28:49;5.18;;;3.13;;
13981;SDS011;7065;50.880;5.502;2023-07-16T12:31:15;7.72;;;3.42;;
13981;SDS011;7065;50.880;5.502;2023-07-16T12:33:43;6.28;;;3.33;;
13981;SDS011;7065;50.880;5.502;2023-07-16T12:36:08;7.80;;;3.67;;
13981;SDS011;7065;50.880;5.502;2023-07-16T12:38:34;5.85;;;4.00;;
13981;SDS011;7065;50.880;5.502;2023-07-16T12:41:00;6.20;;;3.15;;
13981;SDS011;7065;50.880;5.502;2023-07-16T12:43:25;7.90;;;3.97;;
13981;SDS011;7065;50.880;5.502;2023-07-16T12:45:51;4.40;;;3.53;;
13981;SDS011;7065;50.880;5.502;2023-07-16T12:48:18;4.50;;;3.80;;
13981;SDS011;7065;50.880;5.502;2023-07-16T12:50:43;4.72;;;3.40;;
13981;SDS011;7065;50.880;5.502;2023-07-16T12:53:09;7.85;;;3.90;;
13981;SDS011;7065;50.880;5.502;2023-07-16T12:55:35;6.03;;;3.50;;
13981;SDS011;7065;50.880;5.502;2023-07-16T12:58:01;6.75;;;3.50;;
13981;SDS011;7065;50.880;5.502;2023-07-16T13:00:26;4.60;;;3.40;;
13981;SDS011;7065;50.880;5.502;2023-07-16T13:02:53;6.82;;;3.88;;
13981;SDS011;7065;50.880;5.502;2023-07-16T13:05:19;4.13;;;3.72;;
13981;SDS011;7065;50.880;5.502;2023-07-16T13:07:44;4.65;;;3.47;;
13981;SDS011;7065;50.880;5.502;2023-07-16T13:10:10;7.13;;;3.80;;
13981;SDS011;7065;50.880;5.502;2023-07-16T13:12:36;6.28;;;3.97;;
13981;SDS011;7065;50.880;5.502;2023-07-16T13:15:02;5.53;;;3.50;;
13981;SDS011;7065;50.880;5.502;2023-07-16T13:17:28;4.78;;;3.63;;
13981;SDS011;7065;50.880;5.502;2023-07-16T13:19:53;7.82;;;3.90;;
13981;SDS011;7065;50.880;5.502;2023-07-16T13:22:19;4.82;;;3.75;;
13981;SDS011;7065;50.880;5.502;2023-07-16T13:24:45;4.80;;;3.53;;
13981;SDS011;7065;50.880;5.502;2023-07-16T13:27:19;8.43;;;3.50;;
13981;SDS011;7065;50.880;5.502;2023-07-16T13:29:49;4.93;;;3.42;;
13981;SDS011;7065;50.880;5.502;2023-07-16T13:32:15;5.43;;;3.63;;
13981;SDS011;7065;50.880;5.502;2023-07-16T13:34:41;6.28;;;3.72;;
13981;SDS011;7065;50.880;5.502;2023-07-16T13:37:06;4.45;;;3.65;;
13981;SDS011;7065;50.880;5.502;2023-07-16T13:39:32;6.55;;;3.90;;
13981;SDS011;7065;50.880;5.502;2023-07-16T13:41:58;6.15;;;3.90;;
13981;SDS011;7065;50.880;5.502;2023-07-16T13:44:23;5.40;;;3.65;;
13981;SDS011;7065;50.880;5.502;2023-07-16T13:46:49;5.95;;;3.50;;
13981;SDS011;7065;50.880;5.502;2023-07-16T13:49:15;4.65;;;3.50;;
13981;SDS011;7065;50.880;5.502;2023-07-16T13:51:40;6.60;;;4.32;;
13981;SDS011;7065;50.880;5.502;2023-07-16T13:54:07;5.95;;;3.90;;
13981;SDS011;7065;50.880;5.502;2023-07-16T13:56:32;4.95;;;3.42;;
13981;SDS011;7065;50.880;5.502;2023-07-16T13:58:58;7.47;;;4.15;;
13981;SDS011;7065;50.880;5.502;2023-07-16T14:01:24;4.70;;;3.95;;
13981;SDS011;7065;50.880;5.502;2023-07-16T14:03:50;8.55;;;4.03;;
13981;SDS011;7065;50.880;5.502;2023-07-16T14:06:16;5.38;;;3.42;;
13981;SDS011;7065;50.880;5.502;2023-07-16T14:08:42;9.43;;;4.13;;
13981;SDS011;7065;50.880;5.502;2023-07-16T14:11:07;8.07;;;4.07;;
13981;SDS011;7065;50.880;5.502;2023-07-16T14:13:33;6.72;;;3.75;;
13981;SDS011;7065;50.880;5.502;2023-07-16T14:15:58;5.95;;;4.20;;
13981;SDS011;7065;50.880;5.502;2023-07-16T14:18:24;4.55;;;3.85;;
13981;SDS011;7065;50.880;5.502;2023-07-16T14:20:50;5.60;;;3.90;;
13981;SDS011;7065;50.880;5.502;2023-07-16T14:23:15;5.18;;;3.70;;
13981;SDS011;7065;50.880;5.502;2023-07-16T14:25:41;6.15;;;3.92;;
13981;SDS011;7065;50.880;5.502;2023-07-16T14:28:07;4.85;;;4.00;;
13981;SDS011;7065;50.880;5.502;2023-07-16T14:30:32;6.28;;;3.55;;
13981;SDS011;7065;50.880;5.502;2023-07-16T14:32:58;4.15;;;3.58;;
13981;SDS011;7065;50.880;5.502;2023-07-16T14:35:25;6.70;;;3.83;;
13981;SDS011;7065;50.880;5.502;2023-07-16T14:37:52;6.30;;;3.92;;
13981;SDS011;7065;50.880;5.502;2023-07-16T14:40:17;5.70;;;3.78;;
13981;SDS011;7065;50.880;5.502;2023-07-16T14:42:44;4.90;;;3.80;;
13981;SDS011;7065;50.880;5.502;2023-07-16T14:45:10;4.55;;;3.35;;
13981;SDS011;7065;50.880;5.502;2023-07-16T14:47:36;6.32;;;3.63;;
13981;SDS011;7065;50.880;5.502;2023-07-16T14:50:02;6.07;;;3.47;;
13981;SDS011;7065;50.880;5.502;2023-07-16T14:52:28;7.03;;;3.50;;
13981;SDS011;7065;50.880;5.502;2023-07-16T14:54:54;4.05;;;3.38;;
13981;SDS011;7065;50.880;5.502;2023-07-16T14:57:19;4.72;;;3.78;;
13981;SDS011;7065;50.880;5.502;2023-07-16T14:59:45;6.53;;;3.78;;
13981;SDS011;7065;50.880;5.502;2023-07-16T15:02:11;5.60;;;3.38;;